createdAt,value
2018-03-30T00:00:02.086Z,11.53
2018-03-30T00:03:07.432Z,9.53
2018-03-30T00:06:12.737Z,10.03
2018-03-30T00:09:29.219Z,9.77
2018-03-30T00:12:34.488Z,12.30
2018-03-30T00:15:40.077Z,10.93
2018-03-30T00:18:45.656Z,13.30
2018-03-30T00:21:51.245Z,10.90
2018-03-30T00:24:56.806Z,10.10
2018-03-30T00:28:02.405Z,12.90
2018-03-30T00:31:07.949Z,15.23
2018-03-30T00:34:13.651Z,10.17
2018-03-30T00:37:19.196Z,11.20
2018-03-30T00:40:24.788Z,16.30
2018-03-30T00:43:30.365Z,11.20
2018-03-30T00:46:35.954Z,11.00
2018-03-30T00:49:41.515Z,12.60
2018-03-30T00:52:47.117Z,15.60
2018-03-30T00:55:52.739Z,17.40
2018-03-30T00:58:58.292Z,15.63
2018-03-30T01:02:04.038Z,12.13
2018-03-30T01:05:09.585Z,18.37
2018-03-30T01:08:14.934Z,15.47
2018-03-30T01:11:20.497Z,14.67
2018-03-30T01:14:25.869Z,12.67
2018-03-30T01:17:31.534Z,12.57
2018-03-30T01:20:37.092Z,15.07
2018-03-30T01:23:42.697Z,12.80
2018-03-30T01:26:48.298Z,14.30
2018-03-30T01:29:53.913Z,13.80
2018-03-30T01:32:59.500Z,12.17
2018-03-30T01:36:04.854Z,11.73
2018-03-30T01:39:10.393Z,11.93
2018-03-30T01:42:15.981Z,11.90
2018-03-30T01:45:21.533Z,11.47
2018-03-30T01:48:27.158Z,11.47
2018-03-30T01:51:32.766Z,11.57
2018-03-30T01:54:38.376Z,10.43
2018-03-30T01:57:43.954Z,12.20
2018-03-30T02:00:49.503Z,10.10
2018-03-30T02:03:55.094Z,11.13
2018-03-30T02:07:00.736Z,12.60
2018-03-30T02:10:06.313Z,9.70
2018-03-30T02:13:11.970Z,10.40
2018-03-30T02:16:17.568Z,12.50
2018-03-30T02:19:23.158Z,11.03
2018-03-30T02:22:28.742Z,10.87
2018-03-30T02:25:34.134Z,10.93
2018-03-30T02:28:39.678Z,9.07
2018-03-30T02:31:45.277Z,10.80
2018-03-30T02:34:50.814Z,11.53
2018-03-30T02:37:56.434Z,10.30
2018-03-30T02:41:02.049Z,10.33
2018-03-30T02:44:07.630Z,9.00
2018-03-30T02:47:13.217Z,9.60
2018-03-30T02:50:18.753Z,8.73
2018-03-30T02:53:24.337Z,7.43
2018-03-30T02:56:29.900Z,7.63
2018-03-30T02:59:35.483Z,8.50
2018-03-30T03:02:41.024Z,7.83
2018-03-30T03:05:46.599Z,7.83
2018-03-30T03:08:52.137Z,9.07
2018-03-30T03:11:57.726Z,7.90
2018-03-30T03:15:03.278Z,7.37
2018-03-30T03:18:08.864Z,9.13
2018-03-30T03:21:14.426Z,8.50
2018-03-30T03:24:20.013Z,8.00
2018-03-30T03:27:25.556Z,7.97
2018-03-30T03:30:34.165Z,9.90
2018-03-30T03:33:39.787Z,7.13
2018-03-30T03:36:45.389Z,8.73
2018-03-30T03:39:50.933Z,9.10
2018-03-30T03:42:56.750Z,7.40
2018-03-30T03:46:02.306Z,8.03
2018-03-30T03:49:07.985Z,7.40
2018-03-30T03:52:16.121Z,8.40
2018-03-30T03:55:25.502Z,7.30
2018-03-30T03:58:33.918Z,7.93
2018-03-30T04:01:41.708Z,9.17
2018-03-30T04:04:49.545Z,7.10
2018-03-30T04:07:55.950Z,9.00
2018-03-30T04:11:01.729Z,7.00
2018-03-30T04:14:07.386Z,7.20
2018-03-30T04:17:12.697Z,6.33
2018-03-30T04:20:18.297Z,8.10
2018-03-30T04:23:23.848Z,6.20
2018-03-30T04:26:29.446Z,6.77
2018-03-30T04:29:35.124Z,6.67
2018-03-30T04:32:40.668Z,7.50
2018-03-30T04:35:46.276Z,6.70
2018-03-30T04:38:51.827Z,7.57
2018-03-30T04:41:57.402Z,7.03
2018-03-30T04:45:03.024Z,6.67
2018-03-30T04:48:08.612Z,6.30
2018-03-30T04:51:14.200Z,6.80
2018-03-30T04:54:19.787Z,7.07
2018-03-30T04:57:25.339Z,6.57
2018-03-30T05:00:33.597Z,8.43
2018-03-30T05:03:39.150Z,6.37
2018-03-30T05:06:44.739Z,7.20
2018-03-30T05:09:50.285Z,7.27
2018-03-30T05:12:55.694Z,9.60
2018-03-30T05:16:01.278Z,7.93
2018-03-30T05:19:06.862Z,7.40
2018-03-30T05:22:12.460Z,7.17
2018-03-30T05:25:17.877Z,8.63
2018-03-30T05:28:23.431Z,12.17
2018-03-30T05:31:29.025Z,8.47
2018-03-30T05:34:34.770Z,7.47
2018-03-30T05:37:40.372Z,8.03
2018-03-30T05:40:45.920Z,7.47
2018-03-30T05:43:51.530Z,7.80
2018-03-30T05:46:57.097Z,7.83
2018-03-30T05:50:02.705Z,11.83
2018-03-30T05:53:08.268Z,7.90
2018-03-30T05:56:13.869Z,8.67
2018-03-30T05:59:19.412Z,8.80
2018-03-30T06:02:25.038Z,7.27
2018-03-30T06:05:30.840Z,7.67
2018-03-30T06:08:36.448Z,7.80
2018-03-30T06:11:42.022Z,8.20
2018-03-30T06:14:47.452Z,8.40
2018-03-30T06:17:53.006Z,13.53
2018-03-30T06:20:58.648Z,7.50
2018-03-30T06:24:04.678Z,7.60
2018-03-30T06:27:10.247Z,7.60
2018-03-30T06:30:15.837Z,9.13
2018-03-30T06:33:21.405Z,7.90
2018-03-30T06:36:26.979Z,6.37
2018-03-30T06:39:32.568Z,6.77
2018-03-30T06:42:38.101Z,7.57
2018-03-30T06:45:43.706Z,8.13
2018-03-30T06:48:49.258Z,6.80
2018-03-30T06:51:54.890Z,7.50
2018-03-30T06:55:00.546Z,7.70
2018-03-30T06:58:06.131Z,8.90
2018-03-30T07:01:11.681Z,7.60
2018-03-30T07:04:17.282Z,6.87
2018-03-30T07:07:22.829Z,8.70
2018-03-30T07:10:32.400Z,10.00
2018-03-30T07:13:38.007Z,7.50
2018-03-30T07:16:43.606Z,8.57
2018-03-30T07:19:49.219Z,9.43
2018-03-30T07:22:54.818Z,8.10
2018-03-30T07:26:00.380Z,8.77
2018-03-30T07:29:05.965Z,8.40
2018-03-30T07:32:11.504Z,7.63
2018-03-30T07:35:17.095Z,6.40
2018-03-30T07:38:22.639Z,6.60
2018-03-30T07:41:28.224Z,7.43
2018-03-30T07:44:33.817Z,8.77
2018-03-30T07:47:39.431Z,8.80
2018-03-30T07:50:45.016Z,6.90
2018-03-30T07:53:50.609Z,7.00
2018-03-30T07:56:56.190Z,9.00
2018-03-30T08:00:01.807Z,9.40
2018-03-30T08:03:07.434Z,9.30
2018-03-30T08:06:12.998Z,7.33
2018-03-30T08:09:18.585Z,7.20
2018-03-30T08:12:23.961Z,9.30
2018-03-30T08:15:29.383Z,10.87
2018-03-30T08:18:34.927Z,8.13
2018-03-30T08:21:40.534Z,8.90
2018-03-30T08:24:46.090Z,8.53
2018-03-30T08:27:51.680Z,7.23
2018-03-30T08:30:57.322Z,7.90
2018-03-30T08:34:02.929Z,13.83
2018-03-30T08:37:08.476Z,7.60
2018-03-30T08:40:14.073Z,7.47
2018-03-30T08:43:19.654Z,11.50
2018-03-30T08:46:25.289Z,9.40
2018-03-30T08:49:30.841Z,8.63
2018-03-30T08:52:36.416Z,8.53
2018-03-30T08:55:41.959Z,10.03
2018-03-30T08:58:47.537Z,9.50
2018-03-30T09:01:53.138Z,7.70
2018-03-30T09:04:58.687Z,6.80
2018-03-30T09:08:04.278Z,9.67
2018-03-30T09:11:09.825Z,7.57
2018-03-30T09:14:15.420Z,9.20
2018-03-30T09:17:20.954Z,8.13
2018-03-30T09:20:26.557Z,7.47
2018-03-30T09:23:35.794Z,9.13
2018-03-30T09:26:41.445Z,11.07
2018-03-30T09:29:52.495Z,11.13
2018-03-30T09:32:58.108Z,7.60
2018-03-30T09:36:03.648Z,6.83
2018-03-30T09:39:09.258Z,8.57
2018-03-30T09:42:14.856Z,8.20
2018-03-30T09:45:20.403Z,6.77
2018-03-30T09:48:25.993Z,6.40
2018-03-30T09:51:31.554Z,8.10
2018-03-30T09:54:37.160Z,8.67
2018-03-30T09:57:42.742Z,7.20
2018-03-30T10:00:50.608Z,6.70
2018-03-30T10:03:56.034Z,5.27
2018-03-30T10:07:01.614Z,7.87
2018-03-30T10:10:07.201Z,6.13
2018-03-30T10:13:12.738Z,6.00
2018-03-30T10:16:18.397Z,5.80
2018-03-30T10:19:23.976Z,6.40
2018-03-30T10:22:29.571Z,8.40
2018-03-30T10:25:35.161Z,6.47
2018-03-30T10:28:40.752Z,6.40
2018-03-30T10:31:46.328Z,5.63
2018-03-30T10:34:51.982Z,8.63
2018-03-30T10:37:57.532Z,8.87
2018-03-30T10:41:03.128Z,6.27
2018-03-30T10:44:08.718Z,6.80
2018-03-30T10:47:14.110Z,6.60
2018-03-30T10:50:19.707Z,8.10
2018-03-30T10:53:25.286Z,8.43
2018-03-30T10:56:30.836Z,6.17
2018-03-30T10:59:36.424Z,9.87
2018-03-30T11:02:41.969Z,7.63
2018-03-30T11:05:47.547Z,7.17
2018-03-30T11:08:53.099Z,8.30
2018-03-30T11:11:58.776Z,6.83
2018-03-30T11:15:04.383Z,6.27
2018-03-30T11:18:10.021Z,5.77
2018-03-30T11:21:15.617Z,7.77
2018-03-30T11:24:21.210Z,7.23
2018-03-30T11:27:26.766Z,6.63
2018-03-30T11:30:35.881Z,6.83
2018-03-30T11:33:41.452Z,6.30
2018-03-30T11:36:46.995Z,6.33
2018-03-30T11:39:52.581Z,6.43
2018-03-30T11:42:58.135Z,6.77
2018-03-30T11:46:03.717Z,6.57
2018-03-30T11:49:09.321Z,8.33
2018-03-30T11:52:14.978Z,6.50
2018-03-30T11:55:20.370Z,6.80
2018-03-30T11:58:25.913Z,6.40
2018-03-30T12:01:31.515Z,10.20
2018-03-30T12:04:37.048Z,7.43
2018-03-30T12:07:42.624Z,5.90
2018-03-30T12:10:53.290Z,7.70
2018-03-30T12:13:58.841Z,7.13
2018-03-30T12:17:04.424Z,6.53
2018-03-30T12:20:09.974Z,6.77
2018-03-30T12:23:15.571Z,5.90
2018-03-30T12:26:21.113Z,6.60
2018-03-30T12:29:26.720Z,8.00
2018-03-30T12:32:32.277Z,6.57
2018-03-30T12:35:37.878Z,6.40
2018-03-30T12:38:43.416Z,6.50
2018-03-30T12:41:48.999Z,6.63
2018-03-30T12:44:54.649Z,8.30
2018-03-30T12:48:00.241Z,15.07
2018-03-30T12:51:05.777Z,8.50
2018-03-30T12:54:11.362Z,7.00
2018-03-30T12:57:17.780Z,6.33
2018-03-30T13:00:23.364Z,6.57
2018-03-30T13:03:28.902Z,6.90
2018-03-30T13:06:34.495Z,7.20
2018-03-30T13:09:40.100Z,10.40
2018-03-30T13:12:45.687Z,8.10
2018-03-30T13:15:51.352Z,8.90
2018-03-30T13:18:56.979Z,7.17
2018-03-30T13:22:02.517Z,8.50
2018-03-30T13:25:08.132Z,6.63
2018-03-30T13:28:13.674Z,7.23
2018-03-30T13:31:19.252Z,9.23
2018-03-30T13:34:24.789Z,8.63
2018-03-30T13:37:30.393Z,11.10
2018-03-30T13:40:36.245Z,9.10
2018-03-30T13:43:47.297Z,7.87
2018-03-30T13:46:53.016Z,8.07
2018-03-30T13:49:58.304Z,7.00
2018-03-30T13:53:07.081Z,9.30
2018-03-30T13:56:12.156Z,7.73
2018-03-30T13:59:23.865Z,6.60
2018-03-30T14:02:34.593Z,8.60
2018-03-30T14:05:56.934Z,7.40
2018-03-30T14:09:09.525Z,6.90
2018-03-30T14:12:31.385Z,8.80
2018-03-30T14:15:46.204Z,15.67
2018-03-30T14:18:54.082Z,6.50
2018-03-30T14:21:59.180Z,8.40
2018-03-30T14:25:05.768Z,10.23
2018-03-30T14:28:23.543Z,9.03
2018-03-30T14:31:41.108Z,5.93
2018-03-30T14:34:47.831Z,7.70
2018-03-30T14:37:52.902Z,6.40
2018-03-30T14:40:57.934Z,7.23
2018-03-30T14:44:14.637Z,6.70
2018-03-30T14:47:25.305Z,5.37
2018-03-30T14:54:15.377Z,6.57
2018-03-30T14:57:35.274Z,7.93
2018-03-30T15:00:40.710Z,6.90
2018-03-30T15:03:55.674Z,6.33
2018-03-30T15:10:59.864Z,6.33
2018-03-30T15:17:58.154Z,6.03
2018-03-30T15:21:04.849Z,5.67
2018-03-30T15:24:11.445Z,7.97
2018-03-30T15:27:21.283Z,4.77
2018-03-30T15:30:31.980Z,5.13
2018-03-30T15:33:39.776Z,5.63
2018-03-30T15:36:49.233Z,5.37
2018-03-30T15:39:57.892Z,4.63
2018-03-30T15:43:06.325Z,5.57
2018-03-30T15:49:49.886Z,5.17
2018-03-30T15:52:54.970Z,5.70
2018-03-30T15:55:59.997Z,5.70
2018-03-30T15:59:05.133Z,5.30
2018-03-30T16:02:10.383Z,5.30
2018-03-30T16:05:15.733Z,5.80
2018-03-30T16:08:20.789Z,5.50
2018-03-30T16:11:32.373Z,5.23
2018-03-30T16:14:37.654Z,6.40
2018-03-30T16:17:42.947Z,6.40
2018-03-30T16:20:47.380Z,5.43
2018-03-30T16:23:51.846Z,5.63
2018-03-30T16:26:56.399Z,5.53
2018-03-30T16:30:00.834Z,4.63
2018-03-30T16:33:05.333Z,4.03
2018-03-30T16:36:09.764Z,5.17
2018-03-30T16:39:14.250Z,6.03
2018-03-30T16:42:18.116Z,5.20
2018-03-30T16:45:22.021Z,5.37
2018-03-30T16:48:25.952Z,5.10
2018-03-30T16:51:29.864Z,6.00
2018-03-30T16:54:33.726Z,6.67
2018-03-30T16:57:37.629Z,7.50
2018-03-30T17:00:41.550Z,6.23
2018-03-30T17:03:45.474Z,8.53
2018-03-30T17:06:49.353Z,9.43
2018-03-30T17:09:53.318Z,7.10
2018-03-30T17:12:57.176Z,7.07
2018-03-30T17:16:01.094Z,7.97
2018-03-30T17:19:04.972Z,8.30
2018-03-30T17:22:08.889Z,9.70
2018-03-30T17:25:12.800Z,9.60
2018-03-30T17:28:16.769Z,10.97
2018-03-30T17:31:20.676Z,10.70
2018-03-30T17:34:24.570Z,12.73
2018-03-30T17:37:28.577Z,11.40
2018-03-30T17:40:35.258Z,11.57
2018-03-30T17:43:39.227Z,11.33
2018-03-30T17:46:43.105Z,11.93
2018-03-30T17:49:47.015Z,12.30
2018-03-30T17:52:50.932Z,9.47
2018-03-30T17:55:54.848Z,8.50
2018-03-30T17:58:58.762Z,8.97
2018-03-30T18:02:02.673Z,9.00
2018-03-30T18:05:06.585Z,9.97
2018-03-30T18:08:10.449Z,11.07
2018-03-30T18:11:14.366Z,10.70
2018-03-30T18:14:18.234Z,12.10
2018-03-30T18:17:22.245Z,10.00
2018-03-30T18:20:26.116Z,10.60
2018-03-30T18:23:30.040Z,10.17
2018-03-30T18:26:33.910Z,9.33
2018-03-30T18:29:37.812Z,12.50
2018-03-30T18:32:41.676Z,12.23
2018-03-30T18:35:45.635Z,11.30
2018-03-30T18:38:49.502Z,12.03
2018-03-30T18:41:53.422Z,12.43
2018-03-30T18:44:57.337Z,11.43
2018-03-30T18:48:01.295Z,13.30
2018-03-30T18:51:05.219Z,13.37
2018-03-30T18:54:09.093Z,14.33
2018-03-30T18:57:13.018Z,14.47
2018-03-30T19:00:16.889Z,12.00
2018-03-30T19:03:20.814Z,12.57
2018-03-30T19:06:24.691Z,11.10
2018-03-30T19:09:28.607Z,12.23
2018-03-30T19:12:32.481Z,9.00
2018-03-30T19:15:36.392Z,10.83
2018-03-30T19:18:40.261Z,14.27
2018-03-30T19:21:44.176Z,16.30
2018-03-30T19:24:48.093Z,12.33
2018-03-30T19:27:51.997Z,15.97
2018-03-30T19:30:55.925Z,14.03
2018-03-30T19:33:59.803Z,14.90
2018-03-30T19:37:03.730Z,14.27
2018-03-30T19:40:07.624Z,10.90
2018-03-30T19:43:11.585Z,12.10
2018-03-30T19:46:15.457Z,9.57
2018-03-30T19:49:19.362Z,11.50
2018-03-30T19:52:23.303Z,10.73
2018-03-30T19:55:27.243Z,8.57
2018-03-30T19:58:31.159Z,8.10
2018-03-30T20:01:35.070Z,10.27
2018-03-30T20:04:38.949Z,9.60
2018-03-30T20:07:42.876Z,11.73
2018-03-30T20:10:46.740Z,9.20
2018-03-30T20:13:50.657Z,8.57
2018-03-30T20:16:54.538Z,9.23
2018-03-30T20:19:58.437Z,8.40
2018-03-30T20:23:02.342Z,9.63
2018-03-30T20:26:06.245Z,11.00
2018-03-30T20:29:10.249Z,10.37
2018-03-30T20:32:14.137Z,11.07
2018-03-30T20:35:18.180Z,9.50
2018-03-30T20:38:22.050Z,11.50
2018-03-30T20:41:25.966Z,8.93
2018-03-30T20:44:29.837Z,11.37
2018-03-30T20:47:33.741Z,10.97
2018-03-30T20:50:37.652Z,13.57
2018-03-30T20:53:41.522Z,10.83
2018-03-30T20:56:45.829Z,16.67
2018-03-30T20:59:49.714Z,12.53
2018-03-30T21:02:53.620Z,11.60
2018-03-30T21:05:57.484Z,14.33
2018-03-30T21:09:01.385Z,8.67
2018-03-30T21:12:05.285Z,11.67
2018-03-30T21:15:09.164Z,9.77
2018-03-30T21:18:13.098Z,9.80
2018-03-30T21:21:17.009Z,9.53
2018-03-30T21:24:20.886Z,10.63
2018-03-30T21:27:24.790Z,14.17
2018-03-30T21:30:28.656Z,10.03
2018-03-30T21:33:35.130Z,10.83
2018-03-30T21:36:39.001Z,8.77
2018-03-30T21:39:42.897Z,12.57
2018-03-30T21:42:46.762Z,12.50
2018-03-30T21:45:50.671Z,10.33
2018-03-30T21:48:54.530Z,12.23
2018-03-30T21:51:58.432Z,7.90
2018-03-30T21:55:02.347Z,10.90
2018-03-30T21:58:06.208Z,7.30
2018-03-30T22:01:10.151Z,7.03
2018-03-30T22:04:14.052Z,6.77
2018-03-30T22:07:17.964Z,8.37
2018-03-30T22:10:21.872Z,8.13
2018-03-30T22:13:25.810Z,8.07
2018-03-30T22:16:29.710Z,6.63
2018-03-30T22:19:33.565Z,6.50
2018-03-30T22:22:37.481Z,8.20
2018-03-30T22:25:41.341Z,7.43
2018-03-30T22:28:45.236Z,8.10
2018-03-30T22:31:49.100Z,8.10
2018-03-30T22:34:53.011Z,7.30
2018-03-30T22:37:56.863Z,7.30
2018-03-30T22:41:00.780Z,10.90
2018-03-30T22:44:04.645Z,9.37
2018-03-30T22:47:08.555Z,9.03
2018-03-30T22:50:12.411Z,7.60
2018-03-30T22:53:16.325Z,11.27
2018-03-30T22:56:20.223Z,10.07
2018-03-30T22:59:24.136Z,9.67
2018-03-30T23:02:28.029Z,7.53
2018-03-30T23:05:31.988Z,10.73
2018-03-30T23:08:36.516Z,14.30
2018-03-30T23:11:41.076Z,8.70
2018-03-30T23:14:45.515Z,8.77
2018-03-30T23:17:49.993Z,9.40
2018-03-30T23:20:54.417Z,11.10
2018-03-30T23:23:59.250Z,8.83
2018-03-30T23:27:03.672Z,8.07
2018-03-30T23:30:08.195Z,7.67
2018-03-30T23:33:12.626Z,7.37
2018-03-30T23:36:16.898Z,5.93
2018-03-30T23:39:21.336Z,7.50
2018-03-30T23:42:25.557Z,11.50
2018-03-30T23:45:29.708Z,7.80
2018-03-30T23:48:34.174Z,7.30
2018-03-30T23:51:38.601Z,11.37
2018-03-30T23:54:43.093Z,7.07
2018-03-30T23:57:47.563Z,9.27
